sensor_id;sensor_type;location;lat;lon;timestamp;P1;durP1;ratioP1;P2;durP2;ratioP2
21438;SDS011;10880;50.302;18.736;2022-12-07T00:01:45;12.47;;;6.47;;
21438;SDS011;10880;50.302;18.736;2022-12-07T00:04:13;10.13;;;4.93;;
21438;SDS011;10880;50.302;18.736;2022-12-07T00:06:42;11.97;;;5.57;;
21438;SDS011;10880;50.302;18.736;2022-12-07T00:09:12;10.93;;;6.03;;
21438;SDS011;10880;50.302;18.736;2022-12-07T00:11:40;14.70;;;6.83;;
21438;SDS011;10880;50.302;18.736;2022-12-07T00:14:09;11.00;;;6.40;;
21438;SDS011;10880;50.302;18.736;2022-12-07T00:16:37;9.87;;;5.33;;
21438;SDS011;10880;50.302;18.736;2022-12-07T00:19:04;7.80;;;4.53;;
21438;SDS011;10880;50.302;18.736;2022-12-07T00:21:32;7.87;;;5.10;;
21438;SDS011;10880;50.302;18.736;2022-12-07T00:23:59;11.93;;;5.97;;
21438;SDS011;10880;50.302;18.736;2022-12-07T00:26:27;12.73;;;6.37;;
21438;SDS011;10880;50.302;18.736;2022-12-07T00:29:00;10.50;;;5.23;;
21438;SDS011;10880;50.302;18.736;2022-12-07T00:31:31;15.93;;;7.60;;
21438;SDS011;10880;50.302;18.736;2022-12-07T00:34:04;14.47;;;6.77;;
21438;SDS011;10880;50.302;18.736;2022-12-07T00:36:32;9.37;;;5.40;;
21438;SDS011;10880;50.302;18.736;2022-12-07T00:39:00;13.67;;;6.73;;
21438;SDS011;10880;50.302;18.736;2022-12-07T00:41:28;16.37;;;8.40;;
21438;SDS011;10880;50.302;18.736;2022-12-07T00:43:55;17.33;;;9.23;;
21438;SDS011;10880;50.302;18.736;2022-12-07T00:46:22;13.33;;;6.67;;
21438;SDS011;10880;50.302;18.736;2022-12-07T00:48:49;8.10;;;5.30;;
21438;SDS011;10880;50.302;18.736;2022-12-07T00:51:16;8.47;;;5.10;;
21438;SDS011;10880;50.302;18.736;2022-12-07T00:53:44;6.43;;;4.50;;
21438;SDS011;10880;50.302;18.736;2022-12-07T00:56:12;6.90;;;4.30;;
21438;SDS011;10880;50.302;18.736;2022-12-07T00:58:42;8.90;;;5.47;;
21438;SDS011;10880;50.302;18.736;2022-12-07T01:01:09;7.40;;;4.80;;
21438;SDS011;10880;50.302;18.736;2022-12-07T01:03:36;10.60;;;5.87;;
21438;SDS011;10880;50.302;18.736;2022-12-07T01:06:03;14.00;;;7.80;;
21438;SDS011;10880;50.302;18.736;2022-12-07T01:08:30;14.67;;;7.33;;
21438;SDS011;10880;50.302;18.736;2022-12-07T01:11:02;14.60;;;7.83;;
21438;SDS011;10880;50.302;18.736;2022-12-07T01:13:33;11.73;;;7.03;;
21438;SDS011;10880;50.302;18.736;2022-12-07T01:16:02;15.37;;;7.33;;
21438;SDS011;10880;50.302;18.736;2022-12-07T01:18:32;11.70;;;6.37;;
21438;SDS011;10880;50.302;18.736;2022-12-07T01:21:03;12.73;;;6.57;;
21438;SDS011;10880;50.302;18.736;2022-12-07T01:23:37;17.33;;;7.97;;
21438;SDS011;10880;50.302;18.736;2022-12-07T01:26:05;16.73;;;8.80;;
21438;SDS011;10880;50.302;18.736;2022-12-07T01:28:35;15.17;;;7.57;;
21438;SDS011;10880;50.302;18.736;2022-12-07T01:31:03;17.47;;;8.90;;
21438;SDS011;10880;50.302;18.736;2022-12-07T01:33:32;14.13;;;7.07;;
21438;SDS011;10880;50.302;18.736;2022-12-07T01:36:03;13.03;;;6.87;;
21438;SDS011;10880;50.302;18.736;2022-12-07T01:38:30;21.53;;;10.70;;
21438;SDS011;10880;50.302;18.736;2022-12-07T01:40:58;20.83;;;10.90;;
21438;SDS011;10880;50.302;18.736;2022-12-07T01:43:26;19.93;;;10.67;;
21438;SDS011;10880;50.302;18.736;2022-12-07T01:45:55;10.90;;;6.43;;
21438;SDS011;10880;50.302;18.736;2022-12-07T01:48:25;10.87;;;6.20;;
21438;SDS011;10880;50.302;18.736;2022-12-07T01:50:54;9.67;;;5.23;;
21438;SDS011;10880;50.302;18.736;2022-12-07T01:53:26;6.87;;;4.90;;
21438;SDS011;10880;50.302;18.736;2022-12-07T01:55:55;7.93;;;4.93;;
21438;SDS011;10880;50.302;18.736;2022-12-07T01:58:23;7.13;;;4.60;;
21438;SDS011;10880;50.302;18.736;2022-12-07T02:00:51;14.07;;;7.53;;
21438;SDS011;10880;50.302;18.736;2022-12-07T02:03:18;11.40;;;6.77;;
21438;SDS011;10880;50.302;18.736;2022-12-07T02:06:05;8.87;;;5.30;;
21438;SDS011;10880;50.302;18.736;2022-12-07T02:08:33;10.23;;;6.33;;
21438;SDS011;10880;50.302;18.736;2022-12-07T02:11:03;10.77;;;5.97;;
21438;SDS011;10880;50.302;18.736;2022-12-07T02:13:31;9.60;;;5.50;;
21438;SDS011;10880;50.302;18.736;2022-12-07T02:32:00;8.37;;;4.57;;
21438;SDS011;10880;50.302;18.736;2022-12-07T02:37:23;6.27;;;3.70;;
21438;SDS011;10880;50.302;18.736;2022-12-07T02:40:24;6.33;;;4.23;;
21438;SDS011;10880;50.302;18.736;2022-12-07T02:43:28;4.97;;;3.87;;
21438;SDS011;10880;50.302;18.736;2022-12-07T02:46:08;7.23;;;3.93;;
21438;SDS011;10880;50.302;18.736;2022-12-07T02:48:35;5.70;;;3.43;;
21438;SDS011;10880;50.302;18.736;2022-12-07T02:51:05;11.10;;;5.67;;
21438;SDS011;10880;50.302;18.736;2022-12-07T02:53:36;11.20;;;6.50;;
21438;SDS011;10880;50.302;18.736;2022-12-07T02:56:12;9.40;;;6.00;;
21438;SDS011;10880;50.302;18.736;2022-12-07T02:59:07;12.73;;;7.27;;
21438;SDS011;10880;50.302;18.736;2022-12-07T03:15:54;5.00;;;3.30;;
21438;SDS011;10880;50.302;18.736;2022-12-07T03:18:29;4.23;;;3.07;;
21438;SDS011;10880;50.302;18.736;2022-12-07T03:21:02;8.47;;;5.17;;
21438;SDS011;10880;50.302;18.736;2022-12-07T03:23:32;8.07;;;4.67;;
21438;SDS011;10880;50.302;18.736;2022-12-07T03:26:03;7.47;;;4.80;;
21438;SDS011;10880;50.302;18.736;2022-12-07T03:28:33;6.77;;;4.47;;
21438;SDS011;10880;50.302;18.736;2022-12-07T03:31:05;6.17;;;4.30;;
21438;SDS011;10880;50.302;18.736;2022-12-07T03:37:08;5.83;;;3.77;;
21438;SDS011;10880;50.302;18.736;2022-12-07T03:39:57;5.50;;;4.20;;
21438;SDS011;10880;50.302;18.736;2022-12-07T03:42:24;9.47;;;5.30;;
21438;SDS011;10880;50.302;18.736;2022-12-07T03:44:51;8.03;;;4.80;;
21438;SDS011;10880;50.302;18.736;2022-12-07T03:47:24;6.97;;;4.40;;
21438;SDS011;10880;50.302;18.736;2022-12-07T03:52:50;8.33;;;5.00;;
21438;SDS011;10880;50.302;18.736;2022-12-07T03:55:26;9.50;;;5.63;;
21438;SDS011;10880;50.302;18.736;2022-12-07T03:57:58;7.57;;;4.63;;
21438;SDS011;10880;50.302;18.736;2022-12-07T04:00:29;6.57;;;4.27;;
21438;SDS011;10880;50.302;18.736;2022-12-07T04:02:56;6.60;;;4.37;;
21438;SDS011;10880;50.302;18.736;2022-12-07T04:05:22;6.03;;;4.07;;
21438;SDS011;10880;50.302;18.736;2022-12-07T04:07:49;7.93;;;4.77;;
21438;SDS011;10880;50.302;18.736;2022-12-07T04:10:16;7.27;;;4.53;;
21438;SDS011;10880;50.302;18.736;2022-12-07T04:12:42;6.77;;;4.20;;
21438;SDS011;10880;50.302;18.736;2022-12-07T04:15:09;6.27;;;4.10;;
21438;SDS011;10880;50.302;18.736;2022-12-07T04:17:35;6.10;;;3.70;;
21438;SDS011;10880;50.302;18.736;2022-12-07T04:20:02;9.03;;;4.93;;
21438;SDS011;10880;50.302;18.736;2022-12-07T04:22:30;7.13;;;4.03;;
21438;SDS011;10880;50.302;18.736;2022-12-07T04:24:56;8.57;;;4.10;;
21438;SDS011;10880;50.302;18.736;2022-12-07T04:27:24;6.07;;;3.77;;
21438;SDS011;10880;50.302;18.736;2022-12-07T04:29:51;7.87;;;4.73;;
21438;SDS011;10880;50.302;18.736;2022-12-07T04:32:17;6.03;;;3.90;;
21438;SDS011;10880;50.302;18.736;2022-12-07T04:34:44;5.67;;;3.50;;
21438;SDS011;10880;50.302;18.736;2022-12-07T04:37:10;7.87;;;4.50;;
21438;SDS011;10880;50.302;18.736;2022-12-07T04:39:37;8.03;;;4.67;;
21438;SDS011;10880;50.302;18.736;2022-12-07T04:42:03;7.23;;;4.23;;
21438;SDS011;10880;50.302;18.736;2022-12-07T04:44:30;7.90;;;4.70;;
21438;SDS011;10880;50.302;18.736;2022-12-07T04:46:57;8.17;;;4.43;;
21438;SDS011;10880;50.302;18.736;2022-12-07T04:49:24;8.43;;;5.07;;
21438;SDS011;10880;50.302;18.736;2022-12-07T04:51:51;7.83;;;4.73;;
21438;SDS011;10880;50.302;18.736;2022-12-07T04:54:17;7.87;;;4.63;;
21438;SDS011;10880;50.302;18.736;2022-12-07T04:56:44;6.30;;;3.97;;
21438;SDS011;10880;50.302;18.736;2022-12-07T04:59:11;8.50;;;4.83;;
21438;SDS011;10880;50.302;18.736;2022-12-07T05:01:39;8.07;;;5.00;;
21438;SDS011;10880;50.302;18.736;2022-12-07T05:04:06;16.50;;;8.47;;
21438;SDS011;10880;50.302;18.736;2022-12-07T05:06:33;13.47;;;6.67;;
21438;SDS011;10880;50.302;18.736;2022-12-07T05:09:00;10.10;;;5.80;;
21438;SDS011;10880;50.302;18.736;2022-12-07T05:11:27;6.90;;;4.43;;
21438;SDS011;10880;50.302;18.736;2022-12-07T05:16:37;9.57;;;5.03;;
21438;SDS011;10880;50.302;18.736;2022-12-07T05:19:06;7.53;;;4.40;;
21438;SDS011;10880;50.302;18.736;2022-12-07T05:21:37;5.73;;;3.77;;
21438;SDS011;10880;50.302;18.736;2022-12-07T05:24:04;5.07;;;3.77;;
21438;SDS011;10880;50.302;18.736;2022-12-07T05:26:32;7.27;;;4.17;;
21438;SDS011;10880;50.302;18.736;2022-12-07T05:28:59;5.47;;;3.83;;
21438;SDS011;10880;50.302;18.736;2022-12-07T05:31:26;5.43;;;3.50;;
21438;SDS011;10880;50.302;18.736;2022-12-07T05:33:53;4.37;;;3.20;;
21438;SDS011;10880;50.302;18.736;2022-12-07T05:36:20;4.77;;;3.47;;
21438;SDS011;10880;50.302;18.736;2022-12-07T05:38:47;3.90;;;3.03;;
21438;SDS011;10880;50.302;18.736;2022-12-07T05:41:15;6.43;;;4.20;;
21438;SDS011;10880;50.302;18.736;2022-12-07T05:44:05;4.90;;;3.60;;
21438;SDS011;10880;50.302;18.736;2022-12-07T05:46:32;5.77;;;4.00;;
21438;SDS011;10880;50.302;18.736;2022-12-07T05:48:58;7.23;;;4.30;;
21438;SDS011;10880;50.302;18.736;2022-12-07T05:51:25;9.13;;;4.87;;
21438;SDS011;10880;50.302;18.736;2022-12-07T05:53:53;7.93;;;4.53;;
21438;SDS011;10880;50.302;18.736;2022-12-07T05:56:19;9.83;;;4.50;;
21438;SDS011;10880;50.302;18.736;2022-12-07T05:58:47;5.57;;;4.07;;
21438;SDS011;10880;50.302;18.736;2022-12-07T06:01:32;6.53;;;4.10;;
21438;SDS011;10880;50.302;18.736;2022-12-07T06:03:59;6.33;;;4.23;;
21438;SDS011;10880;50.302;18.736;2022-12-07T06:06:25;5.57;;;3.63;;
21438;SDS011;10880;50.302;18.736;2022-12-07T06:08:52;6.37;;;4.00;;
21438;SDS011;10880;50.302;18.736;2022-12-07T06:11:18;6.30;;;4.10;;
21438;SDS011;10880;50.302;18.736;2022-12-07T06:14:06;5.77;;;3.67;;
21438;SDS011;10880;50.302;18.736;2022-12-07T06:16:34;5.57;;;3.57;;
21438;SDS011;10880;50.302;18.736;2022-12-07T06:19:01;4.70;;;3.70;;
21438;SDS011;10880;50.302;18.736;2022-12-07T06:21:28;6.57;;;4.10;;
21438;SDS011;10880;50.302;18.736;2022-12-07T06:23:56;6.13;;;3.90;;
21438;SDS011;10880;50.302;18.736;2022-12-07T06:26:25;6.33;;;4.27;;
21438;SDS011;10880;50.302;18.736;2022-12-07T06:28:56;5.73;;;3.80;;
21438;SDS011;10880;50.302;18.736;2022-12-07T06:31:23;4.63;;;3.57;;
21438;SDS011;10880;50.302;18.736;2022-12-07T06:33:50;5.53;;;3.50;;
21438;SDS011;10880;50.302;18.736;2022-12-07T06:36:16;5.07;;;3.50;;
21438;SDS011;10880;50.302;18.736;2022-12-07T06:38:43;4.27;;;3.03;;
21438;SDS011;10880;50.302;18.736;2022-12-07T06:41:12;7.00;;;4.70;;
21438;SDS011;10880;50.302;18.736;2022-12-07T06:43:38;5.00;;;3.60;;
21438;SDS011;10880;50.302;18.736;2022-12-07T06:46:04;4.43;;;3.13;;
21438;SDS011;10880;50.302;18.736;2022-12-07T06:48:31;4.00;;;3.03;;
21438;SDS011;10880;50.302;18.736;2022-12-07T06:50:59;5.57;;;3.60;;
21438;SDS011;10880;50.302;18.736;2022-12-07T06:53:25;5.07;;;3.30;;
21438;SDS011;10880;50.302;18.736;2022-12-07T06:55:52;3.97;;;2.93;;
21438;SDS011;10880;50.302;18.736;2022-12-07T06:58:21;3.13;;;2.60;;
21438;SDS011;10880;50.302;18.736;2022-12-07T07:00:48;5.10;;;3.63;;
21438;SDS011;10880;50.302;18.736;2022-12-07T07:03:17;4.80;;;3.33;;
21438;SDS011;10880;50.302;18.736;2022-12-07T07:05:46;6.37;;;3.43;;
21438;SDS011;10880;50.302;18.736;2022-12-07T07:08:13;4.63;;;3.60;;
21438;SDS011;10880;50.302;18.736;2022-12-07T07:10:41;4.73;;;3.60;;
21438;SDS011;10880;50.302;18.736;2022-12-07T07:13:07;4.17;;;3.20;;
21438;SDS011;10880;50.302;18.736;2022-12-07T07:15:34;5.40;;;3.17;;
21438;SDS011;10880;50.302;18.736;2022-12-07T07:18:01;5.00;;;3.30;;
21438;SDS011;10880;50.302;18.736;2022-12-07T07:20:29;6.70;;;4.03;;
21438;SDS011;10880;50.302;18.736;2022-12-07T07:22:59;4.90;;;3.43;;
21438;SDS011;10880;50.302;18.736;2022-12-07T07:25:25;5.43;;;3.40;;
21438;SDS011;10880;50.302;18.736;2022-12-07T07:27:52;8.93;;;4.73;;
21438;SDS011;10880;50.302;18.736;2022-12-07T07:30:18;6.73;;;4.23;;
21438;SDS011;10880;50.302;18.736;2022-12-07T07:32:45;6.43;;;4.07;;
21438;SDS011;10880;50.302;18.736;2022-12-07T07:35:11;4.80;;;3.67;;
21438;SDS011;10880;50.302;18.736;2022-12-07T07:37:42;3.80;;;3.00;;
21438;SDS011;10880;50.302;18.736;2022-12-07T07:40:09;3.87;;;3.30;;
21438;SDS011;10880;50.302;18.736;2022-12-07T07:42:36;6.17;;;4.00;;
21438;SDS011;10880;50.302;18.736;2022-12-07T07:45:03;7.80;;;5.27;;
21438;SDS011;10880;50.302;18.736;2022-12-07T07:47:30;6.83;;;4.30;;
21438;SDS011;10880;50.302;18.736;2022-12-07T07:49:57;7.87;;;4.60;;
21438;SDS011;10880;50.302;18.736;2022-12-07T07:52:24;5.90;;;4.20;;
21438;SDS011;10880;50.302;18.736;2022-12-07T07:54:53;6.47;;;4.20;;
21438;SDS011;10880;50.302;18.736;2022-12-07T07:57:19;5.77;;;4.07;;
21438;SDS011;10880;50.302;18.736;2022-12-07T07:59:46;4.97;;;3.50;;
21438;SDS011;10880;50.302;18.736;2022-12-07T08:02:13;6.33;;;3.57;;
21438;SDS011;10880;50.302;18.736;2022-12-07T08:04:43;3.97;;;3.00;;
21438;SDS011;10880;50.302;18.736;2022-12-07T08:07:10;4.23;;;3.27;;
21438;SDS011;10880;50.302;18.736;2022-12-07T08:09:38;6.33;;;3.97;;
21438;SDS011;10880;50.302;18.736;2022-12-07T08:12:04;3.93;;;3.10;;
21438;SDS011;10880;50.302;18.736;2022-12-07T08:14:31;7.60;;;4.70;;
21438;SDS011;10880;50.302;18.736;2022-12-07T08:16:58;8.27;;;5.30;;
21438;SDS011;10880;50.302;18.736;2022-12-07T08:19:24;6.40;;;4.03;;
21438;SDS011;10880;50.302;18.736;2022-12-07T08:21:51;6.77;;;4.30;;
21438;SDS011;10880;50.302;18.736;2022-12-07T08:24:18;7.27;;;4.70;;
21438;SDS011;10880;50.302;18.736;2022-12-07T08:26:44;14.63;;;7.60;;
21438;SDS011;10880;50.302;18.736;2022-12-07T08:29:12;10.47;;;5.57;;
21438;SDS011;10880;50.302;18.736;2022-12-07T08:31:38;7.23;;;4.17;;
21438;SDS011;10880;50.302;18.736;2022-12-07T08:34:05;5.00;;;3.90;;
21438;SDS011;10880;50.302;18.736;2022-12-07T08:36:31;4.97;;;3.87;;
21438;SDS011;10880;50.302;18.736;2022-12-07T08:38:58;3.67;;;2.97;;
21438;SDS011;10880;50.302;18.736;2022-12-07T08:41:24;4.57;;;3.23;;
21438;SDS011;10880;50.302;18.736;2022-12-07T08:43:55;3.47;;;2.70;;
21438;SDS011;10880;50.302;18.736;2022-12-07T08:46:25;3.10;;;2.80;;
21438;SDS011;10880;50.302;18.736;2022-12-07T08:48:55;3.10;;;2.80;;
21438;SDS011;10880;50.302;18.736;2022-12-07T08:51:27;4.53;;;3.07;;
21438;SDS011;10880;50.302;18.736;2022-12-07T08:53:54;4.20;;;3.17;;
21438;SDS011;10880;50.302;18.736;2022-12-07T08:56:24;8.10;;;4.73;;
21438;SDS011;10880;50.302;18.736;2022-12-07T08:58:51;9.37;;;5.40;;
21438;SDS011;10880;50.302;18.736;2022-12-07T09:01:18;8.03;;;5.40;;
21438;SDS011;10880;50.302;18.736;2022-12-07T09:03:45;9.13;;;5.07;;
21438;SDS011;10880;50.302;18.736;2022-12-07T09:06:12;12.13;;;6.03;;
21438;SDS011;10880;50.302;18.736;2022-12-07T09:08:44;11.47;;;6.87;;
21438;SDS011;10880;50.302;18.736;2022-12-07T09:11:16;10.30;;;5.97;;
21438;SDS011;10880;50.302;18.736;2022-12-07T09:13:42;8.27;;;4.77;;
21438;SDS011;10880;50.302;18.736;2022-12-07T09:16:09;7.97;;;4.60;;
21438;SDS011;10880;50.302;18.736;2022-12-07T09:18:36;4.63;;;3.40;;
21438;SDS011;10880;50.302;18.736;2022-12-07T09:21:04;4.83;;;3.33;;
21438;SDS011;10880;50.302;18.736;2022-12-07T09:23:30;4.97;;;3.47;;
21438;SDS011;10880;50.302;18.736;2022-12-07T09:26:01;4.33;;;3.30;;
21438;SDS011;10880;50.302;18.736;2022-12-07T09:28:29;5.87;;;3.40;;
21438;SDS011;10880;50.302;18.736;2022-12-07T09:30:56;5.37;;;3.13;;
21438;SDS011;10880;50.302;18.736;2022-12-07T09:33:23;4.27;;;3.00;;
21438;SDS011;10880;50.302;18.736;2022-12-07T09:35:50;3.90;;;3.20;;
21438;SDS011;10880;50.302;18.736;2022-12-07T09:38:19;5.33;;;3.40;;
21438;SDS011;10880;50.302;18.736;2022-12-07T09:40:46;7.67;;;4.97;;
21438;SDS011;10880;50.302;18.736;2022-12-07T09:43:18;9.87;;;5.70;;
21438;SDS011;10880;50.302;18.736;2022-12-07T09:45:53;7.87;;;4.37;;
21438;SDS011;10880;50.302;18.736;2022-12-07T09:48:22;6.27;;;3.50;;
21438;SDS011;10880;50.302;18.736;2022-12-07T09:50:55;8.23;;;4.60;;
21438;SDS011;10880;50.302;18.736;2022-12-07T09:53:25;8.03;;;4.57;;
21438;SDS011;10880;50.302;18.736;2022-12-07T09:58:27;18.73;;;9.57;;
21438;SDS011;10880;50.302;18.736;2022-12-07T10:00:57;22.13;;;10.77;;
21438;SDS011;10880;50.302;18.736;2022-12-07T10:03:27;20.33;;;9.80;;
21438;SDS011;10880;50.302;18.736;2022-12-07T10:05:55;16.63;;;7.83;;
21438;SDS011;10880;50.302;18.736;2022-12-07T10:08:24;15.77;;;8.07;;
21438;SDS011;10880;50.302;18.736;2022-12-07T10:10:53;23.43;;;11.63;;
21438;SDS011;10880;50.302;18.736;2022-12-07T10:13:33;15.20;;;8.40;;
21438;SDS011;10880;50.302;18.736;2022-12-07T10:18:49;8.37;;;4.87;;
21438;SDS011;10880;50.302;18.736;2022-12-07T10:21:18;8.23;;;5.07;;
21438;SDS011;10880;50.302;18.736;2022-12-07T10:29:14;18.03;;;9.17;;
21438;SDS011;10880;50.302;18.736;2022-12-07T10:31:41;16.37;;;7.77;;
21438;SDS011;10880;50.302;18.736;2022-12-07T10:34:43;13.00;;;6.27;;
21438;SDS011;10880;50.302;18.736;2022-12-07T10:42:16;8.20;;;4.40;;
21438;SDS011;10880;50.302;18.736;2022-12-07T10:45:12;6.90;;;4.20;;
21438;SDS011;10880;50.302;18.736;2022-12-07T10:59:39;6.47;;;4.40;;
21438;SDS011;10880;50.302;18.736;2022-12-07T11:05:11;10.07;;;5.13;;
21438;SDS011;10880;50.302;18.736;2022-12-07T11:21:10;9.50;;;5.17;;
21438;SDS011;10880;50.302;18.736;2022-12-07T11:26:18;6.33;;;4.40;;
21438;SDS011;10880;50.302;18.736;2022-12-07T11:34:32;11.63;;;6.47;;
21438;SDS011;10880;50.302;18.736;2022-12-07T11:37:20;7.83;;;4.50;;
21438;SDS011;10880;50.302;18.736;2022-12-07T11:39:56;6.47;;;4.23;;
21438;SDS011;10880;50.302;18.736;2022-12-07T11:42:30;7.17;;;4.50;;
21438;SDS011;10880;50.302;18.736;2022-12-07T11:45:10;7.83;;;4.40;;
21438;SDS011;10880;50.302;18.736;2022-12-07T11:50:31;5.23;;;3.13;;
21438;SDS011;10880;50.302;18.736;2022-12-07T11:53:26;8.10;;;5.20;;
21438;SDS011;10880;50.302;18.736;2022-12-07T11:56:00;5.80;;;4.00;;
21438;SDS011;10880;50.302;18.736;2022-12-07T12:03:50;5.57;;;3.70;;
21438;SDS011;10880;50.302;18.736;2022-12-07T12:06:22;7.00;;;4.70;;
21438;SDS011;10880;50.302;18.736;2022-12-07T12:08:54;8.63;;;5.30;;
21438;SDS011;10880;50.302;18.736;2022-12-07T12:13:59;4.97;;;3.37;;
21438;SDS011;10880;50.302;18.736;2022-12-07T12:16:46;3.67;;;3.03;;
21438;SDS011;10880;50.302;18.736;2022-12-07T12:19:41;2.83;;;2.63;;
21438;SDS011;10880;50.302;18.736;2022-12-07T12:22:23;4.90;;;3.87;;
21438;SDS011;10880;50.302;18.736;2022-12-07T12:25:05;3.10;;;2.80;;
21438;SDS011;10880;50.302;18.736;2022-12-07T12:27:38;5.07;;;3.53;;
21438;SDS011;10880;50.302;18.736;2022-12-07T12:30:07;4.87;;;3.70;;
21438;SDS011;10880;50.302;18.736;2022-12-07T12:32:53;4.67;;;4.00;;
21438;SDS011;10880;50.302;18.736;2022-12-07T12:46:54;4.37;;;3.30;;
21438;SDS011;10880;50.302;18.736;2022-12-07T12:51:52;3.10;;;2.77;;
21438;SDS011;10880;50.302;18.736;2022-12-07T12:54:20;2.97;;;2.60;;
21438;SDS011;10880;50.302;18.736;2022-12-07T12:56:51;2.70;;;2.50;;
21438;SDS011;10880;50.302;18.736;2022-12-07T12:59:29;4.47;;;3.70;;
21438;SDS011;10880;50.302;18.736;2022-12-07T13:12:55;4.73;;;3.60;;
21438;SDS011;10880;50.302;18.736;2022-12-07T13:15:40;4.40;;;3.43;;
21438;SDS011;10880;50.302;18.736;2022-12-07T13:20:50;5.00;;;3.80;;
21438;SDS011;10880;50.302;18.736;2022-12-07T13:28:43;5.77;;;4.20;;
21438;SDS011;10880;50.302;18.736;2022-12-07T13:33:48;4.13;;;3.17;;
21438;SDS011;10880;50.302;18.736;2022-12-07T13:36:17;4.10;;;3.40;;
21438;SDS011;10880;50.302;18.736;2022-12-07T13:38:53;4.23;;;3.00;;
21438;SDS011;10880;50.302;18.736;2022-12-07T13:41:28;3.73;;;2.87;;
21438;SDS011;10880;50.302;18.736;2022-12-07T13:44:00;3.00;;;2.60;;
21438;SDS011;10880;50.302;18.736;2022-12-07T13:49:37;3.00;;;2.47;;
21438;SDS011;10880;50.302;18.736;2022-12-07T13:54:43;2.90;;;2.40;;
21438;SDS011;10880;50.302;18.736;2022-12-07T13:57:36;2.50;;;2.30;;
21438;SDS011;10880;50.302;18.736;2022-12-07T14:00:03;3.17;;;2.50;;
21438;SDS011;10880;50.302;18.736;2022-12-07T14:02:32;2.80;;;2.60;;
21438;SDS011;10880;50.302;18.736;2022-12-07T14:13:01;4.33;;;2.60;;
21438;SDS011;10880;50.302;18.736;2022-12-07T14:15:31;2.80;;;2.50;;
21438;SDS011;10880;50.302;18.736;2022-12-07T14:18:00;2.67;;;2.40;;
21438;SDS011;10880;50.302;18.736;2022-12-07T14:22:56;2.80;;;2.50;;
21438;SDS011;10880;50.302;18.736;2022-12-07T14:25:23;2.97;;;2.67;;
21438;SDS011;10880;50.302;18.736;2022-12-07T14:30:28;5.20;;;3.40;;
21438;SDS011;10880;50.302;18.736;2022-12-07T14:33:00;4.27;;;3.30;;
21438;SDS011;10880;50.302;18.736;2022-12-07T14:35:28;4.60;;;3.07;;
21438;SDS011;10880;50.302;18.736;2022-12-07T14:37:57;4.37;;;2.90;;
21438;SDS011;10880;50.302;18.736;2022-12-07T14:40:25;2.90;;;2.60;;
21438;SDS011;10880;50.302;18.736;2022-12-07T14:43:00;3.57;;;2.80;;
21438;SDS011;10880;50.302;18.736;2022-12-07T14:45:32;4.00;;;3.10;;
21438;SDS011;10880;50.302;18.736;2022-12-07T14:47:58;6.63;;;3.23;;
21438;SDS011;10880;50.302;18.736;2022-12-07T14:50:25;3.90;;;2.90;;
21438;SDS011;10880;50.302;18.736;2022-12-07T14:52:54;2.90;;;2.47;;
21438;SDS011;10880;50.302;18.736;2022-12-07T14:55:25;3.27;;;2.90;;
21438;SDS011;10880;50.302;18.736;2022-12-07T14:57:54;3.23;;;2.80;;
21438;SDS011;10880;50.302;18.736;2022-12-07T15:00:22;3.73;;;2.70;;
21438;SDS011;10880;50.302;18.736;2022-12-07T15:02:50;4.80;;;3.40;;
21438;SDS011;10880;50.302;18.736;2022-12-07T15:05:17;6.00;;;3.77;;
21438;SDS011;10880;50.302;18.736;2022-12-07T15:07:45;7.80;;;4.67;;
21438;SDS011;10880;50.302;18.736;2022-12-07T15:10:17;6.43;;;4.00;;
21438;SDS011;10880;50.302;18.736;2022-12-07T15:12:58;5.70;;;3.43;;
21438;SDS011;10880;50.302;18.736;2022-12-07T15:15:45;8.43;;;4.60;;
21438;SDS011;10880;50.302;18.736;2022-12-07T15:18:16;7.17;;;4.30;;
21438;SDS011;10880;50.302;18.736;2022-12-07T15:20:44;5.97;;;3.77;;
21438;SDS011;10880;50.302;18.736;2022-12-07T15:23:11;3.83;;;2.97;;
21438;SDS011;10880;50.302;18.736;2022-12-07T15:25:42;5.33;;;3.50;;
21438;SDS011;10880;50.302;18.736;2022-12-07T15:28:09;5.00;;;3.50;;
21438;SDS011;10880;50.302;18.736;2022-12-07T15:30:37;4.07;;;3.10;;
21438;SDS011;10880;50.302;18.736;2022-12-07T15:33:04;7.10;;;4.50;;
21438;SDS011;10880;50.302;18.736;2022-12-07T15:35:31;5.93;;;3.80;;
21438;SDS011;10880;50.302;18.736;2022-12-07T15:38:07;4.60;;;3.60;;
21438;SDS011;10880;50.302;18.736;2022-12-07T15:40:34;5.00;;;3.23;;
21438;SDS011;10880;50.302;18.736;2022-12-07T15:43:01;3.77;;;2.90;;
21438;SDS011;10880;50.302;18.736;2022-12-07T15:45:28;3.20;;;2.70;;
21438;SDS011;10880;50.302;18.736;2022-12-07T15:47:55;3.50;;;2.73;;
21438;SDS011;10880;50.302;18.736;2022-12-07T15:50:22;6.80;;;4.20;;
21438;SDS011;10880;50.302;18.736;2022-12-07T15:52:49;6.13;;;3.80;;
21438;SDS011;10880;50.302;18.736;2022-12-07T15:55:19;5.13;;;3.30;;
21438;SDS011;10880;50.302;18.736;2022-12-07T15:57:46;4.50;;;3.37;;
21438;SDS011;10880;50.302;18.736;2022-12-07T16:00:12;6.13;;;3.83;;
21438;SDS011;10880;50.302;18.736;2022-12-07T16:02:40;6.23;;;3.70;;
21438;SDS011;10880;50.302;18.736;2022-12-07T16:05:06;7.23;;;3.70;;
21438;SDS011;10880;50.302;18.736;2022-12-07T16:07:33;7.13;;;4.40;;
21438;SDS011;10880;50.302;18.736;2022-12-07T16:10:00;6.93;;;4.60;;
21438;SDS011;10880;50.302;18.736;2022-12-07T16:12:27;5.93;;;3.87;;
21438;SDS011;10880;50.302;18.736;2022-12-07T16:14:53;3.73;;;3.00;;
21438;SDS011;10880;50.302;18.736;2022-12-07T16:17:20;4.80;;;3.60;;
21438;SDS011;10880;50.302;18.736;2022-12-07T16:19:47;4.10;;;3.30;;
21438;SDS011;10880;50.302;18.736;2022-12-07T16:22:13;6.90;;;4.50;;
21438;SDS011;10880;50.302;18.736;2022-12-07T16:24:40;5.80;;;3.80;;
21438;SDS011;10880;50.302;18.736;2022-12-07T16:27:07;5.30;;;3.50;;
21438;SDS011;10880;50.302;18.736;2022-12-07T16:29:35;5.20;;;3.53;;
21438;SDS011;10880;50.302;18.736;2022-12-07T16:32:01;3.33;;;2.87;;
21438;SDS011;10880;50.302;18.736;2022-12-07T16:34:30;5.07;;;3.30;;
21438;SDS011;10880;50.302;18.736;2022-12-07T16:36:56;3.97;;;3.10;;
21438;SDS011;10880;50.302;18.736;2022-12-07T16:39:23;5.93;;;3.80;;
21438;SDS011;10880;50.302;18.736;2022-12-07T16:41:50;5.37;;;3.70;;
21438;SDS011;10880;50.302;18.736;2022-12-07T16:44:19;4.63;;;3.20;;
21438;SDS011;10880;50.302;18.736;2022-12-07T16:46:46;4.97;;;3.20;;
21438;SDS011;10880;50.302;18.736;2022-12-07T16:49:17;5.20;;;3.50;;
21438;SDS011;10880;50.302;18.736;2022-12-07T16:51:48;4.73;;;3.50;;
21438;SDS011;10880;50.302;18.736;2022-12-07T16:54:20;8.63;;;5.10;;
21438;SDS011;10880;50.302;18.736;2022-12-07T16:56:47;5.13;;;3.50;;
21438;SDS011;10880;50.302;18.736;2022-12-07T16:59:14;4.73;;;3.40;;
21438;SDS011;10880;50.302;18.736;2022-12-07T17:01:40;3.07;;;2.70;;
21438;SDS011;10880;50.302;18.736;2022-12-07T17:04:07;4.40;;;3.20;;
21438;SDS011;10880;50.302;18.736;2022-12-07T17:06:36;4.37;;;2.80;;
21438;SDS011;10880;50.302;18.736;2022-12-07T17:09:05;3.13;;;2.70;;
21438;SDS011;10880;50.302;18.736;2022-12-07T17:11:39;6.07;;;3.83;;
21438;SDS011;10880;50.302;18.736;2022-12-07T17:14:12;5.27;;;3.47;;
21438;SDS011;10880;50.302;18.736;2022-12-07T17:16:57;5.87;;;4.07;;
21438;SDS011;10880;50.302;18.736;2022-12-07T17:19:25;5.10;;;3.47;;
21438;SDS011;10880;50.302;18.736;2022-12-07T17:21:52;3.73;;;3.03;;
21438;SDS011;10880;50.302;18.736;2022-12-07T17:24:19;5.07;;;2.90;;
21438;SDS011;10880;50.302;18.736;2022-12-07T17:26:46;7.80;;;4.17;;